createdAt,value
2016-11-08T00:00:35.498Z,4.9
2016-11-08T00:01:36.939Z,4.9
2016-11-08T00:03:39.784Z,4.9
2016-11-08T00:04:41.728Z,4.9
2016-11-08T00:05:43.165Z,4.9
2016-11-08T00:06:44.605Z,4.9
2016-11-08T00:07:46.042Z,4.9
2016-11-08T00:08:47.483Z,4.9
2016-11-08T00:10:50.835Z,4.9
2016-11-08T00:11:52.275Z,4.9
2016-11-08T00:12:53.711Z,4.9
2016-11-08T00:13:55.142Z,4.9
2016-11-08T00:14:56.580Z,4.9
2016-11-08T00:15:58.024Z,4.9
2016-11-08T00:18:01.371Z,4.9
2016-11-08T00:19:02.807Z,4.9
2016-11-08T00:20:04.241Z,4.9
2016-11-08T00:21:05.680Z,4.9
2016-11-08T00:22:07.623Z,4.9
2016-11-08T00:23:09.055Z,4.9
2016-11-08T00:25:11.896Z,4.9
2016-11-08T00:26:13.336Z,4.9
2016-11-08T00:27:14.780Z,4.9
2016-11-08T00:28:16.726Z,4.8
2016-11-08T00:29:18.172Z,4.8
2016-11-08T00:30:19.614Z,4.8
2016-11-08T00:32:22.482Z,4.8
2016-11-08T00:33:23.916Z,4.8
2016-11-08T00:34:25.859Z,4.8
2016-11-08T00:35:27.295Z,4.8
2016-11-08T00:36:28.727Z,4.8
2016-11-08T00:37:30.163Z,4.8
2016-11-08T00:39:33.011Z,4.8
2016-11-08T00:40:34.955Z,4.8
2016-11-08T00:41:36.395Z,4.8
2016-11-08T00:42:37.883Z,4.8
2016-11-08T00:43:39.322Z,4.8
2016-11-08T00:44:40.760Z,4.8
2016-11-08T00:46:44.107Z,4.7
2016-11-08T00:47:45.550Z,4.8
2016-11-08T00:48:46.992Z,4.7
2016-11-08T00:49:48.426Z,4.7
2016-11-08T00:50:49.867Z,4.7
2016-11-08T00:51:51.308Z,4.7
2016-11-08T00:53:54.656Z,4.7
2016-11-08T00:54:56.094Z,4.7
2016-11-08T00:55:57.534Z,4.7
2016-11-08T00:56:58.971Z,4.7
2016-11-08T00:58:00.414Z,4.7
2016-11-08T00:59:01.851Z,4.7
2016-11-08T01:01:05.194Z,4.7
2016-11-08T01:02:06.632Z,4.7
2016-11-08T01:03:08.066Z,4.7
2016-11-08T01:04:09.505Z,4.7
2016-11-08T01:05:11.448Z,4.7
2016-11-08T01:06:12.886Z,4.7
2016-11-08T01:08:15.724Z,4.7
2016-11-08T01:09:17.163Z,4.6
2016-11-08T01:10:18.597Z,4.6
2016-11-08T01:11:20.541Z,4.6
2016-11-08T01:12:21.978Z,4.6
2016-11-08T01:13:23.420Z,4.6
2016-11-08T01:15:26.267Z,4.6
2016-11-08T01:16:27.708Z,4.6
2016-11-08T01:17:29.147Z,4.6
2016-11-08T01:18:31.089Z,4.6
2016-11-08T01:19:32.528Z,4.6
2016-11-08T01:20:33.963Z,4.6
2016-11-08T01:22:36.800Z,4.6
2016-11-08T01:23:38.240Z,4.6
2016-11-08T01:24:40.185Z,4.6
2016-11-08T01:25:41.625Z,4.6
2016-11-08T01:26:43.067Z,4.6
2016-11-08T01:27:44.504Z,4.6
2016-11-08T01:29:47.347Z,4.6
2016-11-08T01:30:49.283Z,4.5
2016-11-08T01:31:50.719Z,4.5
2016-11-08T01:32:52.158Z,4.5
2016-11-08T01:33:53.594Z,4.5
2016-11-08T01:34:55.041Z,4.5
2016-11-08T01:35:56.485Z,4.5
2016-11-08T01:36:57.924Z,4.5
2016-11-08T01:37:59.863Z,4.5
2016-11-08T01:40:02.702Z,4.5
2016-11-08T01:41:04.142Z,4.5
2016-11-08T01:42:05.587Z,4.5
2016-11-08T01:43:07.027Z,4.5
2016-11-08T01:44:08.969Z,4.5
2016-11-08T01:45:10.407Z,4.5
2016-11-08T01:46:11.844Z,4.5
2016-11-08T01:47:13.283Z,4.5
2016-11-08T01:48:14.720Z,4.5
2016-11-08T01:49:16.165Z,4.5
2016-11-08T01:50:17.615Z,4.5
2016-11-08T01:51:19.551Z,4.5
2016-11-08T01:52:20.984Z,4.5
2016-11-08T01:53:22.427Z,4.5
2016-11-08T01:54:23.862Z,4.5
2016-11-08T01:55:25.298Z,4.5
2016-11-08T01:56:26.738Z,4.5
2016-11-08T01:58:30.086Z,4.5
2016-11-08T01:59:31.522Z,4.5
2016-11-08T02:01:34.368Z,4.5
2016-11-08T02:02:35.804Z,4.5
2016-11-08T02:03:37.745Z,4.5
2016-11-08T02:05:40.586Z,4.5
2016-11-08T02:06:42.164Z,4.5
2016-11-08T02:07:43.610Z,4.5
2016-11-08T02:08:45.087Z,4.5
2016-11-08T02:09:46.527Z,4.5
2016-11-08T02:10:47.963Z,4.5
2016-11-08T02:11:49.398Z,4.5
2016-11-08T02:12:51.352Z,4.5
2016-11-08T02:13:52.793Z,4.5
2016-11-08T02:14:54.231Z,4.5
2016-11-08T02:15:55.676Z,4.5
2016-11-08T02:16:57.114Z,4.5
2016-11-08T02:17:58.548Z,4.5
2016-11-08T02:18:59.987Z,4.5
2016-11-08T02:20:01.932Z,4.5
2016-11-08T02:21:03.372Z,4.5
2016-11-08T02:22:04.807Z,4.5
2016-11-08T02:23:06.284Z,4.5
2016-11-08T02:24:07.719Z,4.5
2016-11-08T02:25:09.173Z,4.5
2016-11-08T02:26:10.614Z,4.5
2016-11-08T02:27:12.057Z,4.5
2016-11-08T02:29:15.407Z,4.5
2016-11-08T02:30:16.848Z,4.5
2016-11-08T02:31:18.294Z,4.5
2016-11-08T02:32:19.731Z,4.5
2016-11-08T02:33:21.168Z,4.5
2016-11-08T02:34:23.113Z,4.5
2016-11-08T02:35:24.554Z,4.5
2016-11-08T02:36:25.987Z,4.5
2016-11-08T02:37:27.425Z,4.5
2016-11-08T02:38:28.873Z,4.5
2016-11-08T02:39:30.379Z,4.5
2016-11-08T02:40:31.824Z,4.5
2016-11-08T02:41:33.267Z,4.5
2016-11-08T02:42:35.212Z,4.5
2016-11-08T02:43:36.661Z,4.5
2016-11-08T02:44:38.092Z,4.5
2016-11-08T02:45:39.529Z,4.5
2016-11-08T02:46:40.967Z,4.5
2016-11-08T02:47:42.410Z,4.5
2016-11-08T02:48:43.844Z,4.5
2016-11-08T02:49:45.788Z,4.5
2016-11-08T02:50:47.231Z,4.5
2016-11-08T02:51:48.667Z,4.5
2016-11-08T02:52:50.107Z,4.5
2016-11-08T02:53:51.544Z,4.5
2016-11-08T02:54:52.981Z,4.5
2016-11-08T02:55:54.415Z,4.5
2016-11-08T02:56:56.421Z,4.4
2016-11-08T03:00:00.684Z,4.4
2016-11-08T03:01:02.130Z,4.4
2016-11-08T03:02:03.568Z,4.4
2016-11-08T03:03:05.015Z,4.4
2016-11-08T03:04:06.972Z,4.4
2016-11-08T03:05:08.412Z,4.4
2016-11-08T03:06:09.854Z,4.4
2016-11-08T03:07:11.294Z,4.4
2016-11-08T03:08:12.740Z,4.4
2016-11-08T03:09:14.178Z,4.4
2016-11-08T03:10:15.623Z,4.4
2016-11-08T03:11:17.060Z,4.4
2016-11-08T03:12:19.005Z,4.4
2016-11-08T03:13:20.444Z,4.4
2016-11-08T03:14:21.883Z,4.4
2016-11-08T03:15:23.329Z,4.4
2016-11-08T03:16:24.765Z,4.4
2016-11-08T03:17:26.201Z,4.4
2016-11-08T03:18:27.643Z,4.4
2016-11-08T03:19:29.587Z,4.4
2016-11-08T03:20:31.034Z,4.4
2016-11-08T03:21:32.471Z,4.4
2016-11-08T03:22:33.911Z,4.4
2016-11-08T03:23:35.346Z,4.4
2016-11-08T03:24:36.780Z,4.4
2016-11-08T03:25:38.211Z,4.4
2016-11-08T03:26:40.153Z,4.3
2016-11-08T03:27:41.593Z,4.3
2016-11-08T03:28:43.034Z,4.3
2016-11-08T03:29:44.469Z,4.3
2016-11-08T03:30:45.908Z,4.3
2016-11-08T03:31:47.343Z,4.3
2016-11-08T03:32:48.781Z,4.3
2016-11-08T03:34:52.165Z,4.3
2016-11-08T03:35:53.603Z,4.3
2016-11-08T03:36:55.041Z,4.3
2016-11-08T03:37:56.482Z,4.3
2016-11-08T03:38:57.924Z,4.3
2016-11-08T03:39:59.360Z,4.3
2016-11-08T03:41:01.300Z,4.3
2016-11-08T03:42:02.378Z,4.3
2016-11-08T03:43:04.317Z,4.3
2016-11-08T03:44:05.751Z,4.3
2016-11-08T03:45:07.319Z,4.3
2016-11-08T03:46:08.759Z,4.3
2016-11-08T03:47:10.203Z,4.3
2016-11-08T03:48:11.650Z,4.2
2016-11-08T03:49:13.103Z,4.3
2016-11-08T03:50:14.544Z,4.3
2016-11-08T03:51:15.979Z,4.2
2016-11-08T03:52:17.418Z,4.3
2016-11-08T03:53:19.362Z,4.2
2016-11-08T03:54:20.801Z,4.2
2016-11-08T03:55:22.280Z,4.2
2016-11-08T03:56:23.717Z,4.2
2016-11-08T03:57:25.154Z,4.2
2016-11-08T03:58:26.595Z,4.2
2016-11-08T03:59:28.034Z,4.2
2016-11-08T04:00:29.479Z,4.2
2016-11-08T04:01:31.418Z,4.2
2016-11-08T04:02:32.853Z,4.2
2016-11-08T04:03:34.294Z,4.2
2016-11-08T04:04:35.733Z,4.2
2016-11-08T04:05:37.173Z,4.2
2016-11-08T04:06:38.612Z,4.2
2016-11-08T04:07:40.050Z,4.2
2016-11-08T04:08:41.492Z,4.2
2016-11-08T04:09:43.073Z,4.2
2016-11-08T04:10:44.545Z,4.2
2016-11-08T04:11:46.483Z,4.2
2016-11-08T04:12:47.925Z,4.2
2016-11-08T04:13:49.371Z,4.2
2016-11-08T04:14:50.809Z,4.2
2016-11-08T04:15:52.241Z,4.2
2016-11-08T04:16:53.681Z,4.2
2016-11-08T04:17:55.119Z,4.2
2016-11-08T04:18:56.562Z,4.2
2016-11-08T04:19:58.506Z,4.2
2016-11-08T04:20:59.947Z,4.2
2016-11-08T04:22:01.390Z,4.2
2016-11-08T04:23:02.829Z,4.2
2016-11-08T04:24:04.267Z,4.2
2016-11-08T04:25:05.704Z,4.2
2016-11-08T04:26:07.157Z,4.2
2016-11-08T04:27:08.599Z,4.2
2016-11-08T04:28:10.542Z,4.2
2016-11-08T04:29:11.981Z,4.2
2016-11-08T04:30:13.451Z,4.2
2016-11-08T04:31:14.887Z,4.2
2016-11-08T04:32:16.323Z,4.2
2016-11-08T04:33:17.765Z,4.2
2016-11-08T04:34:19.201Z,4.2
2016-11-08T04:35:20.637Z,4.2
2016-11-08T04:36:22.575Z,4.2
2016-11-08T04:37:24.013Z,4.2
2016-11-08T04:39:26.856Z,4.2
2016-11-08T04:40:28.297Z,4.2
2016-11-08T04:41:29.731Z,4.2
2016-11-08T04:42:31.164Z,4.2
2016-11-08T04:43:33.141Z,4.2
2016-11-08T04:44:34.576Z,4.2
2016-11-08T04:45:36.051Z,4.2
2016-11-08T04:46:37.490Z,4.2
2016-11-08T04:47:38.925Z,4.2
2016-11-08T04:48:40.360Z,4.2
2016-11-08T04:49:41.793Z,4.2
2016-11-08T04:50:43.227Z,4.2
2016-11-08T04:51:45.175Z,4.2
2016-11-08T04:52:46.615Z,4.2
2016-11-08T04:53:48.081Z,4.2
2016-11-08T04:54:49.521Z,4.2
2016-11-08T04:55:50.960Z,4.2
2016-11-08T04:56:52.397Z,4.2
2016-11-08T04:57:53.836Z,4.2
2016-11-08T04:58:55.279Z,4.2
2016-11-08T04:59:56.720Z,4.2
2016-11-08T05:00:58.661Z,4.2
2016-11-08T05:02:00.098Z,4.2
2016-11-08T05:04:02.942Z,4.2
2016-11-08T05:05:04.379Z,4.2
2016-11-08T05:06:05.816Z,4.2
2016-11-08T05:07:07.253Z,4.2
2016-11-08T05:08:09.192Z,4.2
2016-11-08T05:09:10.632Z,4.2
2016-11-08T05:10:12.068Z,4.2
2016-11-08T05:11:13.508Z,4.2
2016-11-08T05:12:14.947Z,4.2
2016-11-08T05:13:16.393Z,4.2
2016-11-08T05:14:17.832Z,4.2
2016-11-08T05:15:19.773Z,4.2
2016-11-08T05:16:21.207Z,4.2
2016-11-08T05:17:22.642Z,4.2
2016-11-08T05:18:24.090Z,4.2
2016-11-08T05:19:25.567Z,4.2
2016-11-08T05:20:27.003Z,4.2
2016-11-08T05:21:28.446Z,4.2
2016-11-08T05:22:29.890Z,4.2
2016-11-08T05:23:31.327Z,4.2
2016-11-08T05:24:33.274Z,4.2
2016-11-08T05:25:34.704Z,4.2
2016-11-08T05:26:36.146Z,4.2
2016-11-08T05:27:37.739Z,4.2
2016-11-08T05:28:39.182Z,4.2
2016-11-08T05:29:40.621Z,4.2
2016-11-08T05:30:42.060Z,4.2
2016-11-08T05:31:43.498Z,4.3
2016-11-08T05:32:45.073Z,4.3
2016-11-08T05:34:47.924Z,4.3
2016-11-08T05:35:49.866Z,4.3
2016-11-08T05:36:51.305Z,4.3
2016-11-08T05:37:52.741Z,4.3
2016-11-08T05:38:54.181Z,4.3
2016-11-08T05:39:55.618Z,4.3
2016-11-08T05:41:58.811Z,4.3
2016-11-08T05:43:00.268Z,4.3
2016-11-08T05:44:01.704Z,4.3
2016-11-08T05:45:03.207Z,4.3
2016-11-08T05:46:04.646Z,4.3
2016-11-08T05:47:06.086Z,4.3
2016-11-08T05:48:07.524Z,4.3
2016-11-08T05:49:08.964Z,4.3
2016-11-08T05:50:10.907Z,4.3
2016-11-08T05:51:12.477Z,4.3
2016-11-08T05:52:13.918Z,4.3
2016-11-08T05:53:15.366Z,4.3
2016-11-08T05:54:16.807Z,4.3
2016-11-08T05:55:18.249Z,4.3
2016-11-08T05:56:19.691Z,4.3
2016-11-08T05:57:21.130Z,4.3
2016-11-08T05:58:22.564Z,4.3
2016-11-08T05:59:24.508Z,4.3
2016-11-08T06:00:25.952Z,4.3
2016-11-08T06:01:27.396Z,4.3
2016-11-08T06:02:28.836Z,4.3
2016-11-08T06:04:31.674Z,4.3
2016-11-08T06:05:33.112Z,4.3
2016-11-08T06:07:36.472Z,4.3
2016-11-08T06:08:37.915Z,4.3
2016-11-08T06:09:39.357Z,4.3
2016-11-08T06:10:40.841Z,4.3
2016-11-08T06:11:42.276Z,4.3
2016-11-08T06:12:43.712Z,4.3
2016-11-08T06:13:45.148Z,4.2
2016-11-08T06:14:47.088Z,4.2
2016-11-08T06:15:48.521Z,4.3
2016-11-08T06:16:49.959Z,4.2
2016-11-08T06:17:51.398Z,4.2
2016-11-08T06:18:52.841Z,4.2
2016-11-08T06:19:54.278Z,4.2
2016-11-08T06:20:55.719Z,4.2
2016-11-08T06:21:57.156Z,4.2
2016-11-08T06:22:59.110Z,4.2
2016-11-08T06:24:00.552Z,4.2
2016-11-08T06:26:03.392Z,4.2
2016-11-08T06:27:04.828Z,4.2
2016-11-08T06:28:06.261Z,4.2
2016-11-08T06:29:07.692Z,4.2
2016-11-08T06:30:09.634Z,4.2
2016-11-08T06:31:11.066Z,4.2
2016-11-08T06:32:12.502Z,4.2
2016-11-08T06:33:13.933Z,4.2
2016-11-08T06:34:15.369Z,4.2
2016-11-08T06:35:16.801Z,4.2
2016-11-08T06:36:18.243Z,4.2
2016-11-08T06:37:20.190Z,4.2
2016-11-08T06:38:21.631Z,4.2
2016-11-08T06:39:23.063Z,4.2
2016-11-08T06:40:24.504Z,4.2
2016-11-08T06:41:25.938Z,4.3
2016-11-08T06:42:27.374Z,4.3
2016-11-08T06:43:28.829Z,4.3
2016-11-08T06:44:30.265Z,4.3
2016-11-08T06:45:32.201Z,4.3
2016-11-08T06:46:33.636Z,4.3
2016-11-08T06:47:35.074Z,4.3
2016-11-08T06:48:36.513Z,4.3
2016-11-08T06:49:37.983Z,4.3
2016-11-08T06:50:39.421Z,4.3
2016-11-08T06:51:40.858Z,4.3
2016-11-08T06:53:44.206Z,4.3
2016-11-08T06:54:45.645Z,4.3
2016-11-08T06:55:47.086Z,4.3
2016-11-08T06:56:48.528Z,4.3
2016-11-08T06:58:51.371Z,4.3
2016-11-08T06:59:53.311Z,4.3
2016-11-08T07:00:54.747Z,4.3
2016-11-08T07:01:56.187Z,4.3
2016-11-08T07:02:57.626Z,4.3
2016-11-08T07:03:59.065Z,4.3
2016-11-08T07:05:00.505Z,4.4
2016-11-08T07:06:01.947Z,4.4
2016-11-08T07:07:03.889Z,4.4
2016-11-08T07:08:05.328Z,4.4
2016-11-08T07:09:06.764Z,4.4
2016-11-08T07:10:08.206Z,4.4
2016-11-08T07:11:09.643Z,4.4
2016-11-08T07:12:11.080Z,4.4
2016-11-08T07:13:12.521Z,4.4
2016-11-08T07:14:13.963Z,4.4
2016-11-08T07:15:15.908Z,4.4
2016-11-08T07:16:17.348Z,4.4
2016-11-08T07:17:18.790Z,4.4
2016-11-08T07:18:20.229Z,4.4
2016-11-08T07:19:21.668Z,4.4
2016-11-08T07:20:23.107Z,4.4
2016-11-08T07:21:24.551Z,4.5
2016-11-08T07:22:26.490Z,4.5
2016-11-08T07:23:27.931Z,4.5
2016-11-08T07:24:29.368Z,4.5
2016-11-08T07:25:30.804Z,4.5
2016-11-08T07:26:32.246Z,4.5
2016-11-08T07:27:33.685Z,4.5
2016-11-08T07:28:35.126Z,4.5
2016-11-08T07:29:37.105Z,4.5
2016-11-08T07:30:38.539Z,4.6
2016-11-08T07:31:39.973Z,4.6
2016-11-08T07:32:41.413Z,4.6
2016-11-08T07:33:42.845Z,4.6
2016-11-08T07:34:44.289Z,4.6
2016-11-08T07:35:45.725Z,4.6
2016-11-08T07:36:47.164Z,4.6
2016-11-08T07:37:49.106Z,4.6
2016-11-08T07:38:50.544Z,4.6
2016-11-08T07:39:51.976Z,4.6
2016-11-08T07:40:53.416Z,4.7
2016-11-08T07:41:54.852Z,4.7
2016-11-08T07:42:56.288Z,4.7
2016-11-08T07:44:59.636Z,4.7
2016-11-08T07:46:01.075Z,4.7
2016-11-08T07:47:02.520Z,4.7
2016-11-08T07:48:03.963Z,4.7
2016-11-08T07:49:05.401Z,4.7
2016-11-08T07:50:07.343Z,4.8
2016-11-08T07:51:08.785Z,4.8
2016-11-08T07:52:10.224Z,4.8
2016-11-08T07:53:11.658Z,4.8
2016-11-08T07:55:14.505Z,4.8
2016-11-08T07:56:16.444Z,4.8
2016-11-08T07:57:17.881Z,4.8
2016-11-08T07:58:19.321Z,4.9
2016-11-08T08:00:22.163Z,4.9
2016-11-08T08:01:23.602Z,4.9
2016-11-08T08:02:25.575Z,4.9
2016-11-08T08:03:27.012Z,5
2016-11-08T08:04:28.448Z,5
2016-11-08T08:05:29.853Z,5
2016-11-08T08:07:32.694Z,5.1
2016-11-08T08:08:34.663Z,5.1
2016-11-08T08:09:36.109Z,5.2
2016-11-08T08:11:38.949Z,5.3
2016-11-08T08:12:40.392Z,5.3
2016-11-08T08:13:41.833Z,5.4
2016-11-08T08:14:43.774Z,5.4
2016-11-08T08:16:46.614Z,5.4
2016-11-08T08:17:48.054Z,5.4
2016-11-08T08:18:49.494Z,5.5
2016-11-08T08:21:54.237Z,5.5
2016-11-08T08:22:55.671Z,5.5
2016-11-08T08:23:57.625Z,5.6
2016-11-08T08:24:59.091Z,5.6
2016-11-08T08:26:00.530Z,5.6
2016-11-08T08:29:04.784Z,5.6
2016-11-08T08:30:06.723Z,5.6
2016-11-08T08:31:08.160Z,5.6
2016-11-08T08:32:09.600Z,5.6
2016-11-08T08:33:11.035Z,5.6
2016-11-08T08:34:12.484Z,5.6
2016-11-08T08:36:15.608Z,5.6
2016-11-08T08:37:17.477Z,5.6
2016-11-08T08:38:18.651Z,5.6
2016-11-08T08:39:20.332Z,5.6
2016-11-08T08:40:21.999Z,5.6
2016-11-08T08:41:23.363Z,5.7
2016-11-08T08:43:26.676Z,5.7
2016-11-08T08:44:27.903Z,5.7
2016-11-08T08:45:29.772Z,5.7
2016-11-08T08:46:30.995Z,5.8
2016-11-08T08:47:32.714Z,5.8
2016-11-08T08:48:34.394Z,5.8
2016-11-08T08:50:37.430Z,5.8
2016-11-08T08:51:38.815Z,5.9
2016-11-08T08:52:40.492Z,5.9
2016-11-08T08:53:42.164Z,5.9
2016-11-08T08:54:43.534Z,5.9
2016-11-08T08:55:45.195Z,5.9
2016-11-08T08:56:46.572Z,6
2016-11-08T08:57:48.282Z,6
2016-11-08T08:59:51.267Z,6
2016-11-08T09:00:52.912Z,6
2016-11-08T09:01:54.572Z,6.1
2016-11-08T09:02:55.724Z,6.1
2016-11-08T09:03:57.381Z,6.1
2016-11-08T09:04:58.743Z,6.1
2016-11-08T09:06:00.621Z,6.1
2016-11-08T09:07:02.270Z,6.1
2016-11-08T09:08:03.423Z,6.1
2016-11-08T09:09:05.295Z,6.1
2016-11-08T09:10:06.962Z,6.1
2016-11-08T09:11:08.120Z,6.1
2016-11-08T09:12:09.990Z,6.1
2016-11-08T09:13:11.640Z,6.1
2016-11-08T09:14:13.011Z,6.1
2016-11-08T09:15:14.664Z,6.1
2016-11-08T09:16:15.852Z,6.1
2016-11-08T09:17:17.506Z,6.1
2016-11-08T09:18:19.169Z,6.1
2016-11-08T09:19:20.548Z,6.1
2016-11-08T09:20:22.206Z,6.1
2016-11-08T09:21:23.863Z,6.1
2016-11-08T09:22:25.515Z,6.1
2016-11-08T09:23:26.915Z,6.1
2016-11-08T09:24:28.596Z,6.1
2016-11-08T09:25:29.746Z,6.1
2016-11-08T09:26:31.618Z,6.1
2016-11-08T09:27:32.979Z,6.1
2016-11-08T09:28:34.627Z,6.1
2016-11-08T09:29:36.286Z,6.1
2016-11-08T09:30:37.941Z,6
2016-11-08T09:31:39.310Z,6
2016-11-08T09:32:40.969Z,6
2016-11-08T09:33:42.199Z,6
2016-11-08T09:34:43.853Z,6
2016-11-08T09:35:45.501Z,6
2016-11-08T09:36:47.151Z,6
2016-11-08T09:37:48.805Z,6
2016-11-08T09:38:50.178Z,6
2016-11-08T09:39:51.832Z,6
2016-11-08T09:40:53.495Z,6
2016-11-08T09:41:54.861Z,6
2016-11-08T09:42:56.511Z,6
2016-11-08T09:43:57.662Z,6
2016-11-08T09:46:01.156Z,6
2016-11-08T09:47:02.809Z,6
2016-11-08T09:48:04.219Z,6
2016-11-08T09:49:05.423Z,6
2016-11-08T09:51:08.926Z,6
2016-11-08T09:52:10.085Z,6
2016-11-08T09:53:11.740Z,6
2016-11-08T09:54:13.396Z,6
2016-11-08T09:55:14.803Z,6
2016-11-08T09:56:16.457Z,6
2016-11-08T09:57:17.818Z,5.9
2016-11-08T09:58:19.469Z,5.9
2016-11-08T09:59:21.341Z,5.9
2016-11-08T10:00:22.487Z,5.9
2016-11-08T10:01:24.155Z,5.9
2016-11-08T10:02:26.020Z,5.9
2016-11-08T10:03:27.169Z,5.9
2016-11-08T10:05:30.661Z,5.9
2016-11-08T10:06:32.030Z,5.9
2016-11-08T10:07:33.683Z,5.9
2016-11-08T10:08:34.871Z,5.9
2016-11-08T10:09:36.521Z,5.9
2016-11-08T10:10:38.180Z,5.8
2016-11-08T10:11:39.585Z,5.8
2016-11-08T10:12:41.281Z,5.8
2016-11-08T10:13:42.979Z,5.8
2016-11-08T10:14:44.348Z,5.8
2016-11-08T10:15:46.036Z,5.8
2016-11-08T10:16:47.193Z,5.8
2016-11-08T10:17:49.349Z,5.8
2016-11-08T10:18:50.714Z,5.8
2016-11-08T10:19:52.077Z,5.8
2016-11-08T10:20:53.742Z,5.8
2016-11-08T10:21:55.111Z,5.8
2016-11-08T10:22:56.769Z,5.8
2016-11-08T10:23:58.493Z,5.8
2016-11-08T10:24:59.645Z,5.8
2016-11-08T10:26:01.302Z,5.8
2016-11-08T10:27:02.950Z,5.8
2016-11-08T10:28:04.314Z,5.8
2016-11-08T10:29:05.965Z,5.8
2016-11-08T10:30:07.617Z,5.8
2016-11-08T10:31:08.989Z,5.8
2016-11-08T10:32:10.648Z,5.8
2016-11-08T10:33:12.310Z,5.8
2016-11-08T10:34:13.675Z,5.8
2016-11-08T10:35:15.353Z,5.8
2016-11-08T10:36:16.732Z,5.8
2016-11-08T10:37:18.394Z,5.8
2016-11-08T10:38:19.900Z,5.8
2016-11-08T10:39:21.553Z,5.8
2016-11-08T10:40:23.213Z,5.8
2016-11-08T10:41:24.581Z,5.8
2016-11-08T10:42:26.235Z,5.8
2016-11-08T10:43:27.630Z,5.8
2016-11-08T10:44:29.016Z,5.9
2016-11-08T10:45:30.949Z,5.9
2016-11-08T10:46:32.148Z,5.9
2016-11-08T10:47:33.812Z,5.9
2016-11-08T10:48:35.188Z,5.9
2016-11-08T10:49:36.845Z,5.9
2016-11-08T10:50:38.214Z,5.8
2016-11-08T10:51:39.862Z,5.8
2016-11-08T10:52:41.734Z,5.9
2016-11-08T10:53:42.950Z,5.9
2016-11-08T10:54:44.607Z,5.9
2016-11-08T10:55:45.973Z,5.9
2016-11-08T10:56:47.584Z,5.9
2016-11-08T10:57:49.246Z,5.9
2016-11-08T10:58:50.899Z,5.9
2016-11-08T10:59:52.555Z,5.9
2016-11-08T11:00:53.920Z,5.9
2016-11-08T11:01:55.582Z,5.9
2016-11-08T11:02:56.949Z,5.9
2016-11-08T11:03:58.606Z,5.9
2016-11-08T11:06:01.380Z,5.9
2016-11-08T11:07:03.247Z,5.9
2016-11-08T11:08:04.901Z,6
2016-11-08T11:09:06.067Z,6
2016-11-08T11:10:07.930Z,6
2016-11-08T11:11:09.079Z,6
2016-11-08T11:13:12.566Z,6
2016-11-08T11:14:14.211Z,6
2016-11-08T11:15:15.365Z,6
2016-11-08T11:16:17.244Z,6
2016-11-08T11:17:18.391Z,6
2016-11-08T11:18:20.044Z,6
2016-11-08T11:19:21.925Z,6
2016-11-08T11:20:23.107Z,6
2016-11-08T11:21:24.992Z,6
2016-11-08T11:22:26.281Z,6
2016-11-08T11:23:27.937Z,6
2016-11-08T11:24:29.308Z,6
2016-11-08T11:25:30.970Z,6
2016-11-08T11:26:32.341Z,6
2016-11-08T11:27:33.996Z,6
2016-11-08T11:28:35.863Z,6
2016-11-08T11:29:37.012Z,6
2016-11-08T11:30:38.667Z,6
2016-11-08T11:31:40.324Z,6
2016-11-08T11:32:41.980Z,6
2016-11-08T11:33:43.150Z,6
2016-11-08T11:34:45.068Z,6
2016-11-08T11:35:46.734Z,6
2016-11-08T11:36:48.106Z,6
2016-11-08T11:37:49.777Z,6
2016-11-08T11:39:52.575Z,6
2016-11-08T11:40:54.241Z,6
2016-11-08T11:41:55.606Z,6
2016-11-08T11:42:57.257Z,6
2016-11-08T11:43:58.923Z,6
2016-11-08T11:46:01.720Z,5.9
2016-11-08T11:47:03.602Z,5.9
2016-11-08T11:48:05.273Z,5.9
2016-11-08T11:49:06.439Z,5.9
2016-11-08T11:50:08.108Z,5.9
2016-11-08T11:51:09.783Z,6
2016-11-08T11:52:11.159Z,6
2016-11-08T11:53:12.843Z,6
2016-11-08T11:54:14.230Z,6
2016-11-08T11:55:15.900Z,6
2016-11-08T11:56:17.269Z,6
2016-11-08T11:57:19.006Z,6
2016-11-08T11:58:20.386Z,6.1
2016-11-08T11:59:22.138Z,6.1
2016-11-08T12:00:23.518Z,6.1
2016-11-08T12:01:25.177Z,6.1
2016-11-08T12:02:26.831Z,6.1
2016-11-08T12:03:28.487Z,6.1
2016-11-08T12:04:29.632Z,6.1
2016-11-08T12:06:32.779Z,6.1
2016-11-08T12:07:34.646Z,6.1
2016-11-08T12:08:35.796Z,6.1
2016-11-08T12:09:37.452Z,6
2016-11-08T12:10:39.606Z,6
2016-11-08T12:11:40.470Z,6
2016-11-08T12:13:43.746Z,6
2016-11-08T12:14:45.106Z,6.1
2016-11-08T12:15:46.751Z,6.1
2016-11-08T12:16:48.404Z,6.1
2016-11-08T12:17:50.053Z,6.1
2016-11-08T12:20:54.665Z,6.2
2016-11-08T12:21:56.031Z,6.3
2016-11-08T12:22:57.683Z,6.3
2016-11-08T12:23:59.340Z,6.3
2016-11-08T12:25:00.709Z,6.3
2016-11-08T12:27:03.984Z,6.3
2016-11-08T12:28:05.636Z,6.3
2016-11-08T12:29:07.292Z,6.3
2016-11-08T12:30:08.670Z,6.4
2016-11-08T12:31:10.321Z,6.4
2016-11-08T12:32:11.683Z,6.4
2016-11-08T12:33:13.333Z,6.4
2016-11-08T12:34:14.700Z,6.4
2016-11-08T12:35:16.351Z,6.4
2016-11-08T12:36:18.004Z,6.4
2016-11-08T12:37:19.657Z,6.5
2016-11-08T12:38:21.030Z,6.5
2016-11-08T12:39:22.687Z,6.5
2016-11-08T12:40:24.335Z,6.5
2016-11-08T12:41:25.986Z,6.5
2016-11-08T12:42:27.356Z,6.5
2016-11-08T12:43:29.004Z,6.5
2016-11-08T12:44:30.372Z,6.5
2016-11-08T12:45:32.024Z,6.5
2016-11-08T12:46:33.676Z,6.5
2016-11-08T12:47:35.043Z,6.5
2016-11-08T12:48:36.699Z,6.5
2016-11-08T12:49:38.068Z,6.5
2016-11-08T12:50:39.714Z,6.5
2016-11-08T12:51:41.158Z,6.5
2016-11-08T12:52:42.826Z,6.5
2016-11-08T12:53:44.507Z,6.5
2016-11-08T12:54:46.173Z,6.5
2016-11-08T12:55:47.608Z,6.5
2016-11-08T12:56:49.279Z,6.5
2016-11-08T12:57:50.449Z,6.5
2016-11-08T12:59:53.956Z,6.4
2016-11-08T13:00:55.344Z,6.4
2016-11-08T13:01:57.025Z,6.4
2016-11-08T13:02:58.703Z,6.4
2016-11-08T13:04:00.088Z,6.4
2016-11-08T13:05:01.749Z,6.4
2016-11-08T13:07:04.742Z,6.3
2016-11-08T13:08:06.117Z,6.3
2016-11-08T13:09:07.784Z,6.3
2016-11-08T13:10:09.579Z,6.3
2016-11-08T13:11:10.731Z,6.2
2016-11-08T13:12:12.387Z,6.2
2016-11-08T13:13:14.260Z,6.2
2016-11-08T13:14:15.423Z,6.2
2016-11-08T13:15:17.584Z,6.2
2016-11-08T13:16:18.962Z,6.2
2016-11-08T13:17:20.120Z,6.2
2016-11-08T13:18:21.997Z,6.1
2016-11-08T13:19:23.361Z,6.1
2016-11-08T13:20:25.015Z,6.1
2016-11-08T13:21:26.388Z,6.1
2016-11-08T13:22:28.037Z,6.1
2016-11-08T13:23:29.401Z,6.1
2016-11-08T13:24:31.058Z,6.1
2016-11-08T13:25:33.160Z,6.1
2016-11-08T13:26:34.317Z,6
2016-11-08T13:27:35.675Z,6
2016-11-08T13:28:37.374Z,6
2016-11-08T13:29:39.101Z,6
2016-11-08T13:30:40.260Z,6
2016-11-08T13:31:41.922Z,6
2016-11-08T13:32:43.789Z,5.9
2016-11-08T13:33:44.942Z,5.9
2016-11-08T13:34:46.603Z,5.9
2016-11-08T13:35:47.972Z,5.9
2016-11-08T13:36:49.629Z,5.9
2016-11-08T13:37:51.283Z,5.8
2016-11-08T13:38:52.646Z,5.8
2016-11-08T13:39:54.302Z,5.8
2016-11-08T13:40:55.951Z,5.8
2016-11-08T13:41:57.607Z,5.8
2016-11-08T13:42:58.808Z,5.8
2016-11-08T13:44:00.682Z,5.8
2016-11-08T13:46:03.458Z,5.8
2016-11-08T13:47:05.112Z,5.8
2016-11-08T13:48:06.977Z,5.8
2016-11-08T13:49:08.127Z,5.7
2016-11-08T13:50:10.007Z,5.7
2016-11-08T13:51:11.165Z,5.7
2016-11-08T13:52:12.852Z,5.7
2016-11-08T13:53:14.212Z,5.7
2016-11-08T13:54:15.856Z,5.7
2016-11-08T13:55:17.518Z,5.7
2016-11-08T13:56:19.180Z,5.7
2016-11-08T13:57:20.547Z,5.7
2016-11-08T13:58:22.228Z,5.7
2016-11-08T14:01:26.854Z,5.7
2016-11-08T14:02:28.512Z,5.7
2016-11-08T14:03:30.169Z,5.7
2016-11-08T14:04:31.530Z,5.6
2016-11-08T14:05:33.183Z,5.6
2016-11-08T14:06:34.338Z,5.6
2016-11-08T14:07:36.203Z,5.6
2016-11-08T14:08:37.354Z,5.6
2016-11-08T14:09:39.006Z,5.6
2016-11-08T14:10:40.654Z,5.6
2016-11-08T14:11:42.020Z,5.6
2016-11-08T14:12:43.674Z,5.6
2016-11-08T14:13:45.327Z,5.6
2016-11-08T14:14:46.974Z,5.6
2016-11-08T14:15:48.347Z,5.6
2016-11-08T14:17:51.651Z,5.5
2016-11-08T14:18:53.026Z,5.5
2016-11-08T14:19:54.672Z,5.5
2016-11-08T14:20:55.819Z,5.5
2016-11-08T14:21:57.464Z,5.5
2016-11-08T14:22:59.353Z,5.5
2016-11-08T14:24:00.507Z,5.4
2016-11-08T14:25:02.163Z,5.4
2016-11-08T14:26:03.520Z,5.4
2016-11-08T14:27:05.180Z,5.4
2016-11-08T14:29:08.169Z,5.4
2016-11-08T14:31:11.173Z,5.4
2016-11-08T14:32:12.837Z,5.4
2016-11-08T14:33:14.705Z,5.3
2016-11-08T14:34:15.852Z,5.3
2016-11-08T14:35:17.506Z,5.3
2016-11-08T14:36:18.869Z,5.3
2016-11-08T14:37:20.531Z,5.3
2016-11-08T14:38:21.934Z,5.2
2016-11-08T14:39:23.589Z,5.2
2016-11-08T14:40:25.280Z,5.2
2016-11-08T14:41:26.936Z,5.2
2016-11-08T14:42:28.087Z,5.2
2016-11-08T14:43:29.951Z,5.1
2016-11-08T14:44:31.100Z,5.1
2016-11-08T14:45:32.753Z,5.1
2016-11-08T14:47:35.778Z,5.1
2016-11-08T14:48:37.450Z,5.1
2016-11-08T14:50:40.440Z,5.1
2016-11-08T14:51:42.086Z,5.1
2016-11-08T14:52:43.778Z,5.1
2016-11-08T14:53:45.146Z,5
2016-11-08T14:54:46.511Z,5
2016-11-08T14:55:48.165Z,5
2016-11-08T14:56:49.823Z,5
2016-11-08T14:57:51.188Z,5
2016-11-08T14:58:52.846Z,5
2016-11-08T14:59:54.012Z,5
2016-11-08T15:00:55.658Z,4.9
2016-11-08T15:01:57.529Z,4.9
2016-11-08T15:02:58.680Z,4.9
2016-11-08T15:04:00.514Z,4.9
2016-11-08T15:05:01.876Z,4.9
2016-11-08T15:06:03.533Z,4.9
2016-11-08T15:07:04.687Z,4.9
2016-11-08T15:08:06.194Z,4.9
2016-11-08T15:09:08.084Z,4.9
2016-11-08T15:10:09.325Z,4.9
2016-11-08T15:11:11.201Z,4.9
2016-11-08T15:12:12.577Z,4.9
2016-11-08T15:13:13.830Z,4.9
2016-11-08T15:15:16.924Z,4.9
2016-11-08T15:17:19.916Z,4.9
2016-11-08T15:18:21.570Z,4.9
2016-11-08T15:19:22.949Z,4.9
2016-11-08T15:20:24.601Z,4.8
2016-11-08T15:21:26.253Z,4.8
2016-11-08T15:23:29.085Z,4.8
2016-11-08T15:24:30.956Z,4.8